»·PEaware :: SKY323 KPRC-KHII

SKY323 :: KPRC-KHII

FLIGHT INFORMATION

Flight Status: Arrived
Operator:
Sky High Charters
More flights by this operator :: More flights under this callsign
Pilot: Zane G. (31)
Aircraft: BEECH AIRCRAFT BARON
(BE58)
More flights by this aircraft type
Origin: KPRC Love
United States
Destination: KHII Lake Havasu City
United States
More flights between these airports :: More routes between these airports
Route: WNSKI2 MUMTE V12 EED
File this flight plan on PilotEdge
Remarks: SKY SCENARIO 8 LEG 1
Altitude:
(Current/Filed)
10,000ft
Speed:
(Current/Filed)
210kts
Departed: 19-Aug-23 01:11 PM
Arrived: 19-Aug-23 01:58 PM
Distance/Time
Traveled:
96nm/0:46
Distance/Time
To Go:
Arrived

Flight Plot

Page will automatically refresh every two minutes.

Flight plan parsing failed; only flown route is shown


Map Options




Map Legend


Flown Route
Filed Route
Departure Airport
Arrival Airport
Navaid (VOR, NDB)
Fix

Horizontal Profiles

Position Reports

Time Latitude Longitude Heading Altitude Ground
Speed
19-Aug-23 12:58 34.646536 -112.424761 218 5025ft 0kts
19-Aug-23 12:59 34.646536 -112.424761 218 5025ft 0kts
19-Aug-23 13:00 34.646536 -112.424761 218 5025ft 0kts
19-Aug-23 13:01 34.646536 -112.424761 218 5025ft 0kts
19-Aug-23 13:02 34.646536 -112.424761 218 5025ft 0kts
19-Aug-23 13:03 34.646536 -112.424761 218 5025ft 0kts
19-Aug-23 13:04 34.647094 -112.425058 339 5024ft 0kts
19-Aug-23 13:05 34.651561 -112.420839 41 5015ft 37kts
19-Aug-23 13:06 34.658895 -112.412388 40 4973ft 26kts
19-Aug-23 13:07 34.661621 -112.410644 310 4958ft 0kts
19-Aug-23 13:08 34.661622 -112.410644 310 4958ft 0kts
19-Aug-23 13:09 34.662091 -112.411397 260 4956ft 14kts
19-Aug-23 13:10 34.648281 -112.425181 220 5424ft 141kts
19-Aug-23 13:11 34.616789 -112.423812 90 7449ft 169kts
19-Aug-23 13:12 34.615539 -112.366189 110 9230ft 166kts
19-Aug-23 13:13 34.585745 -112.318610 130 9995ft 202kts
19-Aug-23 13:14 34.547895 -112.268914 154 9933ft 197kts
19-Aug-23 13:15 34.502334 -112.299439 228 9922ft 215kts
19-Aug-23 13:16 34.472147 -112.363754 243 9908ft 223kts
19-Aug-23 13:17 34.455505 -112.436698 258 9997ft 221kts
19-Aug-23 13:18 34.454261 -112.512100 273 9987ft 227kts
19-Aug-23 13:19 34.469006 -112.587465 289 9981ft 229kts
19-Aug-23 13:20 34.498759 -112.655470 305 9970ft 229kts
19-Aug-23 13:21 34.541869 -112.712489 320 9962ft 229kts
19-Aug-23 13:22 34.594775 -112.754049 336 9958ft 225kts
19-Aug-23 13:23 34.653599 -112.778004 351 9986ft 222kts
19-Aug-23 13:24 34.710516 -112.799749 302 9970ft 225kts
19-Aug-23 13:25 34.717774 -112.873074 270 9994ft 221kts
19-Aug-23 13:26 34.720406 -112.948178 269 10003ft 227kts
19-Aug-23 13:27 34.723182 -113.025915 269 10009ft 231kts
19-Aug-23 13:28 34.725924 -113.104162 269 10012ft 232kts
19-Aug-23 13:29 34.728651 -113.182472 269 10011ft 232kts
19-Aug-23 13:30 34.731333 -113.261043 268 10010ft 233kts
19-Aug-23 13:31 34.733880 -113.338580 268 10006ft 230kts
19-Aug-23 13:32 34.736422 -113.416485 267 10006ft 232kts
19-Aug-23 13:33 34.738945 -113.494761 267 10005ft 231kts
19-Aug-23 13:34 34.741386 -113.572710 267 10005ft 230kts
19-Aug-23 13:35 34.743744 -113.650255 267 10014ft 230kts
19-Aug-23 13:36 34.740925 -113.725742 266 9750ft 228kts
19-Aug-23 13:37 34.748270 -113.797945 260 10003ft 221kts
19-Aug-23 13:38 34.750285 -113.874603 266 10007ft 230kts
19-Aug-23 13:39 34.752640 -113.952693 268 10007ft 231kts
19-Aug-23 13:40 34.754578 -114.030218 266 10012ft 229kts
19-Aug-23 13:41 34.756094 -114.107739 252 10019ft 224kts
19-Aug-23 13:42 34.712991 -114.139477 164 10032ft 186kts
19-Aug-23 13:43 34.662244 -114.126620 166 9899ft 190kts
19-Aug-23 13:44 34.609591 -114.113462 166 9213ft 194kts
19-Aug-23 13:45 34.557073 -114.100356 166 8518ft 191kts
19-Aug-23 13:46 34.505021 -114.087376 166 7835ft 191kts
19-Aug-23 13:47 34.453623 -114.074576 166 7151ft 186kts
19-Aug-23 13:48 34.410801 -114.092655 243 6312ft 198kts
19-Aug-23 13:49 34.382958 -114.149353 238 5076ft 195kts
19-Aug-23 13:50 34.366920 -114.207426 295 4334ft 174kts
19-Aug-23 13:51 34.406117 -114.241743 329 3463ft 169kts
19-Aug-23 13:52 34.442995 -114.267750 330 3459ft 142kts
19-Aug-23 13:53 34.475476 -114.290659 330 2820ft 132kts
19-Aug-23 13:54 34.506992 -114.312911 330 2141ft 126kts
19-Aug-23 13:55 34.536757 -114.333966 329 1429ft 122kts
19-Aug-23 13:56 34.561026 -114.351207 329 804ft 86kts
19-Aug-23 13:57 34.567756 -114.358530 324 766ft 12kts
19-Aug-23 13:59 34.568391 -114.358714 58 766ft 0kts
19-Aug-23 14:00 34.568391 -114.358714 58 766ft 0kts
19-Aug-23 14:01 34.568391 -114.358714 58 766ft 0kts
19-Aug-23 14:02 34.568391 -114.358714 58 766ft 0kts
19-Aug-23 14:03 34.568391 -114.358714 58 766ft 0kts
19-Aug-23 14:04 34.568391 -114.358714 58 766ft 0kts
19-Aug-23 14:05 34.568391 -114.358714 58 766ft 0kts
19-Aug-23 14:06 34.568391 -114.358714 58 766ft 0kts
19-Aug-23 14:07 34.568391 -114.358714 58 766ft 0kts
19-Aug-23 14:08 34.568391 -114.358714 58 766ft 0kts
19-Aug-23 14:09 34.568391 -114.358714 58 803ft 0kts

Navigation Log

Ident Type
Flight plan parsing failed, navigation log unavailable